createdAt,value
2018-11-01T00:02:35.226Z,21.57
2018-11-01T00:05:29.890Z,21.30
2018-11-01T00:08:23.900Z,21.70
2018-11-01T00:11:17.602Z,22.45
2018-11-01T00:14:12.844Z,22.87
2018-11-01T00:17:09.275Z,23.02
2018-11-01T00:20:05.450Z,24.32
2018-11-01T00:22:59.260Z,24.63
2018-11-01T00:25:53.507Z,25.70
2018-11-01T00:28:47.295Z,24.60
2018-11-01T00:31:41.596Z,23.42
2018-11-01T00:34:35.281Z,23.47
2018-11-01T00:37:28.844Z,25.68
2018-11-01T00:40:22.706Z,25.12
2018-11-01T00:43:17.327Z,25.15
2018-11-01T00:46:12.719Z,24.63
2018-11-01T00:49:07.731Z,24.15
2018-11-01T00:52:03.295Z,25.35
2018-11-01T00:54:58.765Z,24.98
2018-11-01T00:57:56.836Z,25.12
2018-11-01T01:00:52.448Z,25.05
2018-11-01T01:03:49.285Z,25.43
2018-11-01T01:06:44.703Z,24.70
2018-11-01T01:09:40.165Z,25.32
2018-11-01T01:12:35.437Z,25.77
2018-11-01T01:15:31.105Z,25.55
2018-11-01T01:18:27.110Z,25.85
2018-11-01T01:21:22.761Z,25.57
2018-11-01T01:24:18.503Z,26.30
2018-11-01T01:27:12.660Z,26.45
2018-11-01T01:30:07.718Z,26.60
2018-11-01T01:33:03.515Z,26.35
2018-11-01T01:35:59.914Z,25.85
2018-11-01T01:38:55.321Z,25.32
2018-11-01T01:41:51.205Z,25.20
2018-11-01T01:44:47.315Z,25.35
2018-11-01T01:47:41.870Z,25.27
2018-11-01T01:50:37.077Z,25.17
2018-11-01T01:53:31.137Z,24.85
2018-11-01T01:56:26.005Z,24.77
2018-11-01T01:59:22.150Z,22.37
2018-11-01T02:02:16.126Z,23.30
2018-11-01T02:05:11.603Z,22.32
2018-11-01T02:08:08.064Z,22.75
2018-11-01T02:11:05.839Z,22.45
2018-11-01T02:28:43.089Z,22.25
2018-11-01T02:31:37.661Z,18.55
2018-11-01T02:34:31.853Z,19.45
2018-11-01T02:37:25.948Z,19.02
2018-11-01T02:40:20.352Z,19.50
2018-11-01T02:43:15.164Z,20.40
2018-11-01T02:46:09.698Z,20.75
2018-11-01T02:49:03.885Z,19.75
2018-11-01T02:51:58.272Z,20.50
2018-11-01T02:54:51.950Z,19.73
2018-11-01T02:57:45.835Z,18.10
2018-11-01T03:00:40.191Z,17.42
2018-11-01T03:03:35.436Z,17.27
2018-11-01T03:06:33.527Z,14.80
2018-11-01T03:09:27.773Z,14.05
2018-11-01T03:12:21.934Z,14.43
2018-11-01T03:15:18.323Z,30.10
2018-11-01T03:18:14.476Z,16.50
2018-11-01T03:21:09.011Z,14.50
2018-11-01T03:24:03.807Z,13.18
2018-11-01T03:27:00.904Z,12.85
2018-11-01T03:29:55.645Z,13.45
2018-11-01T03:32:49.808Z,14.60
2018-11-01T03:35:44.475Z,14.60
2018-11-01T03:38:38.470Z,14.85
2018-11-01T03:41:32.240Z,14.50
2018-11-01T03:44:26.907Z,13.50
2018-11-01T03:47:22.713Z,14.60
2018-11-01T03:50:16.950Z,13.48
2018-11-01T03:53:14.221Z,13.83
2018-11-01T03:56:08.862Z,15.28
2018-11-01T03:59:02.791Z,13.40
2018-11-01T04:01:57.074Z,13.22
2018-11-01T04:04:55.119Z,12.58
2018-11-01T04:07:50.393Z,13.18
2018-11-01T04:10:45.137Z,12.30
2018-11-01T04:13:40.932Z,12.45
2018-11-01T04:16:35.281Z,11.83
2018-11-01T04:19:30.315Z,12.07
2018-11-01T04:22:25.374Z,12.28
2018-11-01T04:25:20.851Z,12.60
2018-11-01T04:28:15.374Z,14.28
2018-11-01T04:31:10.534Z,16.17
2018-11-01T04:34:08.989Z,13.25
2018-11-01T04:37:04.347Z,12.00
2018-11-01T04:39:59.060Z,10.72
2018-11-01T04:42:57.249Z,11.75
2018-11-01T04:45:58.307Z,9.85
2018-11-01T04:48:49.969Z,9.63
2018-11-01T04:51:44.241Z,10.60
2018-11-01T04:54:38.351Z,10.20
2018-11-01T04:57:32.386Z,10.03
2018-11-01T05:00:26.171Z,9.23
2018-11-01T05:03:21.081Z,10.43
2018-11-01T05:06:19.205Z,9.68
2018-11-01T05:09:31.689Z,9.35
2018-11-01T05:12:36.369Z,9.88
2018-11-01T05:15:30.602Z,10.50
2018-11-01T05:18:25.802Z,10.48
2018-11-01T05:21:20.240Z,10.13
2018-11-01T05:24:24.226Z,10.68
2018-11-01T05:27:19.307Z,9.95
2018-11-01T05:30:16.241Z,10.85
2018-11-01T05:33:11.427Z,9.55
2018-11-01T05:36:20.388Z,10.80
2018-11-01T05:39:16.184Z,11.63
2018-11-01T05:42:13.913Z,10.20
2018-11-01T05:45:14.855Z,10.50
2018-11-01T05:48:12.236Z,12.25
2018-11-01T05:51:21.282Z,10.85
2018-11-01T05:55:34.644Z,10.65
2018-11-01T05:58:48.886Z,9.65
2018-11-01T06:02:11.565Z,10.40
2018-11-01T06:05:11.947Z,9.18
2018-11-01T06:08:08.588Z,10.58
2018-11-01T06:11:08.629Z,10.68
2018-11-01T06:14:06.731Z,12.45
2018-11-01T06:17:04.176Z,9.40
2018-11-01T06:20:01.291Z,10.35
2018-11-01T06:22:56.235Z,8.53
2018-11-01T06:25:50.679Z,8.85
2018-11-01T06:28:53.504Z,8.93
2018-11-01T06:32:10.555Z,9.25
2018-11-01T06:35:15.341Z,10.35
2018-11-01T06:38:13.491Z,10.28
2018-11-01T06:41:19.731Z,11.70
2018-11-01T06:44:20.581Z,11.97
2018-11-01T06:56:11.671Z,12.40
2018-11-01T06:59:10.732Z,10.80
2018-11-01T07:02:12.657Z,10.72
2018-11-01T07:05:07.533Z,10.93
2018-11-01T07:08:12.522Z,10.75
2018-11-01T07:11:18.474Z,10.55
2018-11-01T07:14:10.452Z,10.95
2018-11-01T07:17:07.168Z,11.48
2018-11-01T07:20:03.643Z,11.33
2018-11-01T07:24:03.582Z,11.53
2018-11-01T07:27:08.694Z,10.40
2018-11-01T07:30:06.759Z,11.33
2018-11-01T07:33:05.788Z,11.45
2018-11-01T07:36:14.014Z,11.95
2018-11-01T07:39:29.657Z,11.12
2018-11-01T07:42:35.175Z,11.38
2018-11-01T07:46:11.504Z,11.60
2018-11-01T07:49:09.388Z,10.32
2018-11-01T07:52:04.161Z,11.97
2018-11-01T07:55:03.593Z,11.33
2018-11-01T07:58:08.448Z,10.65
2018-11-01T08:01:11.166Z,10.85
2018-11-01T08:04:07.262Z,10.98
2018-11-01T08:07:05.136Z,10.03
2018-11-01T08:10:00.984Z,11.53
2018-11-01T08:12:57.588Z,10.32
2018-11-01T08:15:53.887Z,11.10
2018-11-01T08:18:50.123Z,10.25
2018-11-01T08:21:47.148Z,11.05
2018-11-01T08:24:46.870Z,12.45
2018-11-01T08:27:42.343Z,11.65
2018-11-01T08:30:38.355Z,9.90
2018-11-01T08:33:34.563Z,11.15
2018-11-01T08:36:30.471Z,10.43
2018-11-01T08:43:11.978Z,10.03
2018-11-01T08:46:19.665Z,9.85
2018-11-01T08:50:23.108Z,9.85
2018-11-01T08:53:19.957Z,9.70
2018-11-01T09:00:27.173Z,9.35
2018-11-01T09:03:19.433Z,8.88
2018-11-01T09:06:19.157Z,9.35
2018-11-01T09:09:17.129Z,9.08
2018-11-01T09:12:17.217Z,8.68
2018-11-01T09:15:20.180Z,9.28
2018-11-01T09:18:18.845Z,9.25
2018-11-01T09:21:16.715Z,9.00
2018-11-01T09:24:25.058Z,8.38
2018-11-01T09:27:28.449Z,8.90
2018-11-01T09:30:28.123Z,8.93
2018-11-01T09:35:34.933Z,9.23
2018-11-01T09:37:08.719Z,9.15
2018-11-01T09:40:26.366Z,9.95
2018-11-01T09:44:10.927Z,9.65
2018-11-01T09:51:25.630Z,9.15
2018-11-01T09:54:31.936Z,9.00
2018-11-01T10:00:51.550Z,10.20
2018-11-01T10:04:28.415Z,9.83
2018-11-01T10:07:34.686Z,10.70
2018-11-01T10:14:13.113Z,10.32
2018-11-01T10:17:19.117Z,9.90
2018-11-01T10:20:32.010Z,10.38
2018-11-01T10:23:28.352Z,9.78
2018-11-01T10:26:26.087Z,9.35
2018-11-01T10:29:38.104Z,9.30
2018-11-01T10:32:32.501Z,9.43
2018-11-01T10:35:31.468Z,10.30
2018-11-01T10:38:28.022Z,9.65
2018-11-01T10:41:25.741Z,10.30
2018-11-01T10:44:23.957Z,11.95
2018-11-01T10:47:23.948Z,10.58
2018-11-01T10:50:45.221Z,10.08
2018-11-01T10:54:35.223Z,10.10
2018-11-01T10:58:27.640Z,10.58
2018-11-01T11:02:01.978Z,12.05
2018-11-01T11:05:00.571Z,10.68
2018-11-01T11:07:59.153Z,11.25
2018-11-01T11:10:58.180Z,10.70
2018-11-01T11:13:56.816Z,10.80
2018-11-01T11:21:27.112Z,11.55
2018-11-01T11:24:28.664Z,11.20
2018-11-01T11:27:27.170Z,10.72
2018-11-01T11:30:27.792Z,13.28
2018-11-01T11:33:34.729Z,11.83
2018-11-01T11:36:38.893Z,12.20
2018-11-01T11:40:03.943Z,11.68
2018-11-01T11:42:58.101Z,11.00
2018-11-01T11:45:54.085Z,10.85
2018-11-01T11:48:48.266Z,13.35
2018-11-01T11:51:46.743Z,12.55
2018-11-01T11:54:45.885Z,13.43
2018-11-01T11:57:40.134Z,13.68
2018-11-01T12:00:34.808Z,14.98
2018-11-01T12:03:30.013Z,14.80
2018-11-01T12:06:24.824Z,15.53
2018-11-01T12:09:20.265Z,15.28
2018-11-01T12:12:21.880Z,13.88
2018-11-01T12:15:16.650Z,17.95
2018-11-01T12:18:12.365Z,15.00
2018-11-01T12:21:07.228Z,14.58
2018-11-01T12:24:02.369Z,15.18
2018-11-01T12:26:57.184Z,15.43
2018-11-01T12:29:51.816Z,15.20
2018-11-01T12:32:57.439Z,14.38
2018-11-01T12:35:56.997Z,14.95
2018-11-01T12:38:47.981Z,15.55
2018-11-01T12:41:43.197Z,16.60
2018-11-01T12:44:37.350Z,16.70
2018-11-01T12:47:31.886Z,16.12
2018-11-01T12:50:26.196Z,17.52
2018-11-01T12:53:20.975Z,17.45
2018-11-01T12:56:15.477Z,17.40
2018-11-01T12:59:09.612Z,18.23
2018-11-01T13:02:05.855Z,18.50
2018-11-01T13:05:00.566Z,18.70
2018-11-01T13:07:55.060Z,19.52
2018-11-01T13:10:49.761Z,19.45
2018-11-01T13:13:43.866Z,19.75
2018-11-01T13:16:40.080Z,19.85
2018-11-01T13:19:33.929Z,19.70
2018-11-01T13:22:27.883Z,19.45
2018-11-01T13:25:22.276Z,21.33
2018-11-01T13:28:16.759Z,21.25
2018-11-01T13:31:11.470Z,21.30
2018-11-01T13:34:05.745Z,20.88
2018-11-01T13:37:00.685Z,20.45
2018-11-01T13:39:55.728Z,20.32
2018-11-01T13:42:50.016Z,21.30
2018-11-01T13:45:45.240Z,21.90
2018-11-01T13:48:40.772Z,22.15
2018-11-01T13:51:35.754Z,22.70
2018-11-01T13:54:29.897Z,22.02
2018-11-01T13:57:27.915Z,22.52
2018-11-01T14:00:21.955Z,22.05
2018-11-01T14:03:16.287Z,22.07
2018-11-01T14:06:13.900Z,21.95
2018-11-01T14:09:09.322Z,23.05
2018-11-01T14:12:03.445Z,22.67
2018-11-01T14:14:58.286Z,24.25
2018-11-01T14:17:52.215Z,25.10
2018-11-01T14:20:46.183Z,23.70
2018-11-01T14:23:41.334Z,25.62
2018-11-01T14:26:36.116Z,24.40
2018-11-01T14:29:30.895Z,25.10
2018-11-01T14:32:25.337Z,24.90
2018-11-01T14:35:20.054Z,24.67
2018-11-01T14:38:13.745Z,24.23
2018-11-01T14:41:07.895Z,24.37
2018-11-01T14:44:04.190Z,23.87
2018-11-01T14:46:59.207Z,23.57
2018-11-01T14:49:53.041Z,23.57
2018-11-01T14:52:51.393Z,23.38
2018-11-01T14:55:46.620Z,22.95
2018-11-01T14:58:41.611Z,23.15
2018-11-01T15:01:37.275Z,23.57
2018-11-01T15:04:31.638Z,23.50
2018-11-01T15:07:27.359Z,23.52
2018-11-01T15:10:21.641Z,24.20
2018-11-01T15:13:16.169Z,23.65
2018-11-01T15:16:10.506Z,23.50
2018-11-01T15:19:10.743Z,25.20
2018-11-01T15:22:06.079Z,25.70
2018-11-01T15:25:00.175Z,24.77
2018-11-01T15:27:54.332Z,25.45
2018-11-01T15:30:48.698Z,25.75
2018-11-01T15:33:42.373Z,26.17
2018-11-01T15:36:36.346Z,25.68
2018-11-01T15:39:30.530Z,26.50
2018-11-01T15:42:24.644Z,26.00
2018-11-01T15:45:18.846Z,25.35
2018-11-01T15:48:13.300Z,26.15
2018-11-01T15:51:07.308Z,27.67
2018-11-01T15:54:01.628Z,28.00
2018-11-01T15:56:55.686Z,28.45
2018-11-01T15:59:49.999Z,28.05
2018-11-01T16:02:46.239Z,27.95
2018-11-01T16:05:40.494Z,29.05
2018-11-01T16:08:35.189Z,27.90
2018-11-01T16:11:29.539Z,29.65
2018-11-01T16:14:23.973Z,29.75
2018-11-01T16:17:21.483Z,29.18
2018-11-01T16:20:16.695Z,28.80
2018-11-01T16:23:10.619Z,28.42
2018-11-01T16:26:06.177Z,28.47
2018-11-01T16:29:02.620Z,27.95
2018-11-01T16:31:57.207Z,28.90
2018-11-01T16:34:51.209Z,29.57
2018-11-01T16:37:46.099Z,27.82
2018-11-01T16:40:40.996Z,29.70
2018-11-01T16:43:35.476Z,29.25
2018-11-01T16:46:32.376Z,30.17
2018-11-01T16:49:26.352Z,30.95
2018-11-01T16:52:20.765Z,30.72
2018-11-01T16:55:14.889Z,33.58
2018-11-01T16:58:08.843Z,32.50
2018-11-01T17:01:02.694Z,31.82
2018-11-01T17:03:57.102Z,31.23
2018-11-01T17:06:51.492Z,30.05
2018-11-01T17:09:45.483Z,30.32
2018-11-01T17:12:39.770Z,30.30
2018-11-01T17:15:37.059Z,30.77
2018-11-01T17:18:30.906Z,29.50
2018-11-01T17:21:27.925Z,31.37
2018-11-01T17:24:19.385Z,30.25
2018-11-01T17:27:13.707Z,31.90
2018-11-01T17:30:08.137Z,32.23
2018-11-01T17:33:02.101Z,32.67
2018-11-01T17:35:56.665Z,33.02
2018-11-01T17:38:51.667Z,32.90
2018-11-01T17:41:46.130Z,31.95
2018-11-01T17:44:40.993Z,31.65
2018-11-01T17:47:35.299Z,31.15
2018-11-01T17:50:29.344Z,29.12
2018-11-01T17:53:23.579Z,29.63
2018-11-01T17:56:18.221Z,29.98
2018-11-01T17:59:13.333Z,29.48
2018-11-01T18:02:07.891Z,28.65
2018-11-01T18:05:07.922Z,26.97
2018-11-01T18:07:58.311Z,27.80
2018-11-01T18:10:55.359Z,29.90
2018-11-01T18:13:49.421Z,27.90
2018-11-01T18:16:43.938Z,27.07
2018-11-01T18:19:38.098Z,26.68
2018-11-01T18:22:33.627Z,26.30
2018-11-01T18:25:27.601Z,26.33
2018-11-01T18:28:21.988Z,26.82
2018-11-01T18:31:16.330Z,26.35
2018-11-01T18:34:10.057Z,26.30
2018-11-01T18:37:04.135Z,26.80
2018-11-01T18:39:58.114Z,27.00
2018-11-01T18:42:53.731Z,26.57
2018-11-01T18:45:47.917Z,26.00
2018-11-01T18:48:44.267Z,26.02
2018-11-01T18:51:37.904Z,26.73
2018-11-01T18:54:31.678Z,26.52
2018-11-01T18:57:25.299Z,26.68
2018-11-01T19:00:20.446Z,26.90
2018-11-01T19:03:14.402Z,27.17
2018-11-01T19:06:08.410Z,27.20
2018-11-01T19:09:05.787Z,27.52
2018-11-01T19:12:01.031Z,27.02
2018-11-01T19:14:55.349Z,26.37
2018-11-01T19:17:49.461Z,27.22
2018-11-01T19:20:43.546Z,28.32
2018-11-01T19:23:37.301Z,27.55
2018-11-01T19:26:30.986Z,27.58
2018-11-01T19:29:30.322Z,28.42
2018-11-01T19:32:20.324Z,28.15
2018-11-01T19:35:16.342Z,29.63
2018-11-01T19:38:10.263Z,28.90
2018-11-01T19:41:04.668Z,29.77
2018-11-01T19:44:01.723Z,29.80
2018-11-01T19:46:55.317Z,29.98
2018-11-01T19:49:49.485Z,30.32
2018-11-01T19:52:47.289Z,29.90
2018-11-01T19:55:37.545Z,30.15
2018-11-01T19:58:31.514Z,30.05
2018-11-01T20:01:25.696Z,29.55
2018-11-01T20:04:19.441Z,30.57
2018-11-01T20:07:13.140Z,32.45
2018-11-01T20:10:06.878Z,31.10
2018-11-01T20:13:00.691Z,32.28
2018-11-01T20:15:54.769Z,32.10
2018-11-01T20:18:48.976Z,32.08
2018-11-01T20:21:42.483Z,32.00
2018-11-01T20:24:36.506Z,30.27
2018-11-01T20:27:29.881Z,30.35
2018-11-01T20:30:24.999Z,30.50
2018-11-01T20:33:18.802Z,31.42
2018-11-01T20:36:12.605Z,31.37
2018-11-01T20:39:07.504Z,32.00
2018-11-01T20:42:01.077Z,29.15
2018-11-01T20:44:56.696Z,31.05
2018-11-01T20:47:50.224Z,31.35
2018-11-01T20:50:44.259Z,29.27
2018-11-01T20:53:39.977Z,30.48
2018-11-01T20:56:34.262Z,28.60
2018-11-01T20:59:28.754Z,27.85
2018-11-01T21:02:28.383Z,28.25
2018-11-01T21:05:18.487Z,28.15
2018-11-01T21:08:12.398Z,30.52
2018-11-01T21:11:06.272Z,61.90
2018-11-01T21:13:59.972Z,63.92
2018-11-01T21:16:54.802Z,104.97
2018-11-01T21:19:48.860Z,109.22
2018-11-01T21:22:45.929Z,100.78
2018-11-01T21:25:37.040Z,107.72
2018-11-01T21:28:30.401Z,118.02
2018-11-01T21:31:23.878Z,135.85
2018-11-01T21:34:17.513Z,145.47
2018-11-01T21:37:11.818Z,121.70
2018-11-01T21:40:05.790Z,102.30
2018-11-01T21:42:59.460Z,90.87
2018-11-01T21:45:55.322Z,87.47
2018-11-01T21:48:49.262Z,72.22
2018-11-01T21:51:43.444Z,71.80
2018-11-01T21:54:37.625Z,77.62
2018-11-01T21:57:34.065Z,81.28
2018-11-01T22:00:27.933Z,78.40
2018-11-01T22:03:21.591Z,77.80
2018-11-01T22:06:18.343Z,76.87
2018-11-01T22:09:12.757Z,75.10
2018-11-01T22:12:06.030Z,75.05
2018-11-01T22:14:59.683Z,78.97
2018-11-01T22:17:53.503Z,76.30
2018-11-01T22:20:47.216Z,75.03
2018-11-01T22:23:41.106Z,68.72
2018-11-01T22:26:35.680Z,63.58
2018-11-01T22:29:29.482Z,62.13
2018-11-01T22:32:23.231Z,60.52
2018-11-01T22:35:18.947Z,59.63
2018-11-01T22:38:13.575Z,60.45
2018-11-01T22:41:07.211Z,59.67
2018-11-01T22:44:04.279Z,59.10
2018-11-01T22:46:58.183Z,60.00
2018-11-01T22:49:53.654Z,57.50
2018-11-01T22:52:51.241Z,58.75
2018-11-01T22:55:45.708Z,56.42
2018-11-01T22:58:39.494Z,54.75
2018-11-01T23:01:36.736Z,52.08
2018-11-01T23:04:30.427Z,50.58
2018-11-01T23:07:26.142Z,50.58
2018-11-01T23:10:19.703Z,48.10
2018-11-01T23:13:15.560Z,48.60
2018-11-01T23:16:09.309Z,46.50
2018-11-01T23:19:03.992Z,46.13
2018-11-01T23:21:57.573Z,45.50
2018-11-01T23:24:52.378Z,43.92
2018-11-01T23:27:46.559Z,42.98
2018-11-01T23:30:40.841Z,42.23
2018-11-01T23:33:34.690Z,43.60
2018-11-01T23:36:28.242Z,42.53
2018-11-01T23:39:41.015Z,41.48
2018-11-01T23:42:53.218Z,41.18
2018-11-01T23:46:03.376Z,40.35
2018-11-01T23:49:02.950Z,40.45
2018-11-01T23:52:09.485Z,40.15
2018-11-01T23:55:04.760Z,39.92
2018-11-01T23:57:58.532Z,40.55
